Time;durP1;ratioP1;P1;durP2;ratioP2;P2;SDS_P1;SDS_P2;PMS_P1;PMS_P2;Temp;Humidity;BMP_temperature;BMP_pressure;BME280_temperature;BME280_humidity;BME280_pressure;Samples;Min_cycle;Max_cycle;Signal;HPM_P1;HPM_P2
2024/03/11 00:01:44;;;;;;;13.43;7.78;;;7.50;99.90;;;;;;5089421;28;20047;-75
2024/03/11 00:04:12;;;;;;;11.68;6.45;;;7.50;99.90;;;;;;5088634;28;20126;-76
2024/03/11 00:06:40;;;;;;;14.07;7.25;;;7.50;99.90;;;;;;5084950;28;20046;-75
2024/03/11 00:09:15;;;;;;;12.82;7.22;;;7.50;99.90;;;;;;5090798;28;20044;-76
2024/03/11 00:11:56;;;;;;;18.42;6.85;;;7.50;99.90;;;;;;5088557;28;20111;-75
2024/03/11 00:14:26;;;;;;;16.48;7.40;;;7.40;99.90;;;;;;5105305;28;20048;-74
2024/03/11 00:16:55;;;;;;;17.90;7.60;;;7.50;99.90;;;;;;5072339;28;20131;-76
2024/03/11 00:19:22;;;;;;;12.48;7.78;;;7.40;99.90;;;;;;5090719;28;20460;-75
2024/03/11 00:21:52;;;;;;;9.77;6.63;;;7.40;99.90;;;;;;5089904;28;20480;-75
2024/03/11 00:24:18;;;;;;;12.18;6.90;;;7.40;99.90;;;;;;5106931;28;20039;-75
2024/03/11 00:26:45;;;;;;;13.63;7.35;;;7.40;99.90;;;;;;5081735;28;20041;-75
2024/03/11 00:29:10;;;;;;;12.07;7.75;;;7.30;99.90;;;;;;5074155;28;20043;-75
2024/03/11 00:31:37;;;;;;;12.63;6.53;;;7.40;99.90;;;;;;5089179;28;20454;-75
2024/03/11 00:34:06;;;;;;;17.40;8.02;;;7.30;99.90;;;;;;5073918;28;20074;-76
2024/03/11 00:36:31;;;;;;;19.10;7.90;;;7.30;99.90;;;;;;5093204;28;20066;-75
2024/03/11 00:38:57;;;;;;;13.80;7.43;;;7.30;99.90;;;;;;5090620;28;20036;-74
2024/03/11 00:41:24;;;;;;;12.25;7.05;;;7.30;99.90;;;;;;5087688;28;20480;-75
2024/03/11 00:43:50;;;;;;;11.68;7.05;;;7.30;99.90;;;;;;5090605;28;20048;-75
2024/03/11 00:46:18;;;;;;;14.30;6.65;;;7.20;99.90;;;;;;5071879;28;20110;-75
2024/03/11 00:48:45;;;;;;;16.08;6.90;;;7.20;99.90;;;;;;5104056;28;20040;-74
2024/03/11 00:51:11;;;;;;;9.52;5.70;;;7.10;99.90;;;;;;5071267;28;20039;-75
2024/03/11 00:53:37;;;;;;;13.75;6.80;;;7.10;99.90;;;;;;5086637;28;20582;-74
2024/03/11 00:56:06;;;;;;;13.35;7.25;;;7.10;99.90;;;;;;5085708;28;20056;-75
2024/03/11 00:58:35;;;;;;;11.45;7.07;;;7.00;99.90;;;;;;5080034;28;20059;-75
2024/03/11 01:01:02;;;;;;;12.90;6.63;;;7.00;99.90;;;;;;5089968;28;20044;-75
2024/03/11 01:03:32;;;;;;;11.85;6.05;;;7.00;99.90;;;;;;5087999;28;20051;-75
2024/03/11 01:06:00;;;;;;;15.07;6.78;;;7.00;99.90;;;;;;5089826;28;20040;-75
2024/03/11 01:08:29;;;;;;;12.38;6.72;;;7.00;99.90;;;;;;5080006;28;20040;-76
2024/03/11 01:10:58;;;;;;;11.60;7.25;;;6.90;99.90;;;;;;5085990;28;20036;-75
2024/03/11 01:13:24;;;;;;;12.68;6.35;;;6.90;99.90;;;;;;5072189;28;20097;-75
2024/03/11 01:15:50;;;;;;;12.30;7.47;;;6.90;99.90;;;;;;5086992;28;20040;-75
2024/03/11 01:18:17;;;;;;;12.27;6.65;;;6.80;99.90;;;;;;5073476;28;20113;-75
2024/03/11 01:20:43;;;;;;;10.27;5.90;;;6.80;99.90;;;;;;5087365;28;20051;-74
2024/03/11 01:23:09;;;;;;;14.50;7.00;;;6.80;99.90;;;;;;5087056;28;20058;-74
2024/03/11 01:25:36;;;;;;;14.23;7.38;;;6.80;99.90;;;;;;5087002;28;20051;-75
2024/03/11 01:28:04;;;;;;;13.35;7.43;;;6.80;99.90;;;;;;5086761;28;20069;-75
2024/03/11 01:30:30;;;;;;;16.30;8.10;;;6.80;99.90;;;;;;5086200;28;20039;-75
2024/03/11 01:32:55;;;;;;;9.32;5.70;;;6.70;99.90;;;;;;5087672;28;20028;-75
2024/03/11 01:35:21;;;;;;;17.55;7.80;;;6.70;99.90;;;;;;5087759;28;20104;-75
2024/03/11 01:37:47;;;;;;;11.65;7.38;;;6.70;99.90;;;;;;5085569;28;20040;-75
2024/03/11 01:40:15;;;;;;;10.02;6.32;;;6.70;99.90;;;;;;5069614;28;20043;-75
2024/03/11 01:42:44;;;;;;;14.52;6.80;;;6.70;99.90;;;;;;5087808;28;20092;-75
2024/03/11 01:45:12;;;;;;;15.93;7.07;;;6.70;99.90;;;;;;5086884;28;20166;-75
2024/03/11 01:47:38;;;;;;;11.10;5.95;;;6.70;99.90;;;;;;5072163;28;20043;-75
2024/03/11 01:50:07;;;;;;;9.50;5.63;;;6.70;99.90;;;;;;5090778;28;20093;-76
2024/03/11 01:52:43;;;;;;;14.70;6.75;;;6.70;99.90;;;;;;5067902;28;20483;-75
2024/03/11 01:55:10;;;;;;;14.07;5.75;;;6.70;99.90;;;;;;5100875;28;20169;-75
2024/03/11 01:57:37;;;;;;;9.35;5.03;;;6.70;99.90;;;;;;5089456;28;20039;-75
2024/03/11 02:00:13;;;;;;;19.25;7.60;;;6.70;99.90;;;;;;5085333;28;20118;-74
2024/03/11 02:02:39;;;;;;;17.15;7.50;;;6.70;99.90;;;;;;5087847;28;20075;-74
2024/03/11 02:05:12;;;;;;;14.20;6.15;;;6.70;99.90;;;;;;5103736;28;20105;-74
2024/03/11 02:07:39;;;;;;;9.60;6.38;;;6.70;99.90;;;;;;5087177;28;20094;-74
2024/03/11 02:10:13;;;;;;;11.57;5.47;;;6.70;99.90;;;;;;5087205;28;20067;-74
2024/03/11 02:12:47;;;;;;;11.55;7.55;;;6.70;99.90;;;;;;5084769;28;20060;-74
2024/03/11 02:15:14;;;;;;;13.43;6.15;;;6.70;99.90;;;;;;5085605;28;20496;-74
2024/03/11 02:17:44;;;;;;;13.52;6.38;;;6.70;99.90;;;;;;5088624;28;20077;-75
2024/03/11 02:20:17;;;;;;;11.43;7.10;;;6.70;99.90;;;;;;5084136;28;20093;-74
2024/03/11 02:22:49;;;;;;;10.38;6.10;;;6.80;99.90;;;;;;5087269;28;20174;-74
2024/03/11 02:25:20;;;;;;;8.05;5.13;;;6.80;99.90;;;;;;5084354;28;20044;-75
2024/03/11 02:27:47;;;;;;;13.70;5.72;;;6.80;99.90;;;;;;5072053;28;20123;-74
2024/03/11 02:30:15;;;;;;;17.70;6.15;;;6.80;99.90;;;;;;5086217;28;20036;-74
2024/03/11 02:32:42;;;;;;;14.27;7.15;;;6.80;99.90;;;;;;5087742;28;20036;-74
2024/03/11 02:35:08;;;;;;;16.85;5.97;;;6.80;99.90;;;;;;5081616;28;20045;-75
2024/03/11 02:37:35;;;;;;;9.38;6.85;;;6.90;99.90;;;;;;5088227;28;20058;-74
2024/03/11 02:40:06;;;;;;;16.65;7.85;;;6.90;99.90;;;;;;5084888;28;20051;-75
2024/03/11 02:42:32;;;;;;;18.25;7.18;;;6.90;99.90;;;;;;5086340;28;20044;-75
2024/03/11 02:44:58;;;;;;;11.55;7.15;;;6.90;99.90;;;;;;5088293;28;20498;-75
2024/03/11 02:47:24;;;;;;;14.23;6.07;;;6.90;99.90;;;;;;5086456;28;20439;-75
2024/03/11 02:49:50;;;;;;;7.43;4.13;;;6.90;99.90;;;;;;5089206;28;20044;-75
2024/03/11 02:52:17;;;;;;;14.70;6.28;;;6.90;99.90;;;;;;5089142;28;20036;-75
2024/03/11 02:54:45;;;;;;;10.68;5.75;;;6.90;99.90;;;;;;5087702;28;20046;-75
2024/03/11 02:57:11;;;;;;;11.60;6.40;;;6.90;99.90;;;;;;5083838;28;20044;-75
2024/03/11 02:59:40;;;;;;;10.18;5.95;;;6.90;99.90;;;;;;5072070;28;20050;-75
2024/03/11 03:02:08;;;;;;;8.02;4.90;;;6.90;99.90;;;;;;5085992;28;20388;-75
2024/03/11 03:04:34;;;;;;;10.68;5.43;;;6.90;99.90;;;;;;5087271;28;20036;-75
2024/03/11 03:07:00;;;;;;;12.77;6.38;;;6.90;99.90;;;;;;5089810;28;20047;-75
2024/03/11 03:09:27;;;;;;;13.80;7.72;;;6.90;99.90;;;;;;5092001;28;20122;-74
2024/03/11 03:11:54;;;;;;;12.18;5.03;;;6.90;99.90;;;;;;5088449;28;20039;-76
2024/03/11 03:14:21;;;;;;;7.70;3.83;;;6.90;99.90;;;;;;5089380;28;20605;-75
2024/03/11 03:16:47;;;;;;;9.77;5.43;;;7.00;99.90;;;;;;5090178;28;20055;-75
2024/03/11 03:19:15;;;;;;;11.50;6.07;;;7.00;99.90;;;;;;5088050;28;20416;-75
2024/03/11 03:21:40;;;;;;;12.85;6.50;;;7.00;99.90;;;;;;5090412;28;20056;-75
2024/03/11 03:24:06;;;;;;;12.35;6.03;;;7.00;99.90;;;;;;5076674;28;20092;-75
2024/03/11 03:26:32;;;;;;;12.30;5.97;;;7.00;99.90;;;;;;5088059;28;20135;-75
2024/03/11 03:28:58;;;;;;;10.48;6.20;;;7.00;99.90;;;;;;5091142;28;20036;-75
2024/03/11 03:31:27;;;;;;;9.85;4.93;;;7.00;99.90;;;;;;5086931;28;20046;-75
2024/03/11 03:33:53;;;;;;;10.05;6.20;;;7.00;99.90;;;;;;5091617;28;20039;-75
2024/03/11 03:36:19;;;;;;;6.28;4.05;;;7.00;99.90;;;;;;5088584;28;20044;-75
2024/03/11 03:38:45;;;;;;;12.20;6.80;;;7.00;99.90;;;;;;5091171;28;20051;-76
2024/03/11 03:41:11;;;;;;;10.52;4.90;;;7.00;99.90;;;;;;5069585;28;20035;-75
2024/03/11 03:43:37;;;;;;;8.85;5.25;;;7.00;99.90;;;;;;5091727;28;20518;-75
2024/03/11 03:46:03;;;;;;;11.02;5.35;;;7.00;99.90;;;;;;5088072;28;20032;-75
2024/03/11 03:48:29;;;;;;;12.65;5.05;;;7.00;99.90;;;;;;5092163;28;20381;-75
2024/03/11 03:50:55;;;;;;;17.65;6.47;;;7.00;99.90;;;;;;5088397;28;20043;-75
2024/03/11 03:53:21;;;;;;;13.38;6.63;;;7.00;99.90;;;;;;5091297;28;20040;-76
2024/03/11 03:55:47;;;;;;;12.90;6.38;;;7.00;99.90;;;;;;5086397;28;20049;-75
2024/03/11 03:58:13;;;;;;;12.23;5.80;;;7.00;99.90;;;;;;5091645;28;20119;-75
2024/03/11 04:00:39;;;;;;;9.27;5.72;;;7.00;99.90;;;;;;5090739;28;20039;-75
2024/03/11 04:03:05;;;;;;;11.85;4.80;;;7.00;99.90;;;;;;5106660;28;20036;-75
2024/03/11 04:05:31;;;;;;;7.97;4.13;;;7.10;99.90;;;;;;5091578;28;20044;-74
2024/03/11 04:07:57;;;;;;;9.20;5.03;;;7.00;99.90;;;;;;5090461;28;20507;-75
2024/03/11 04:10:23;;;;;;;8.88;4.90;;;7.10;99.90;;;;;;5090199;28;20036;-75
2024/03/11 04:12:51;;;;;;;7.22;5.07;;;7.10;99.90;;;;;;5087234;28;20135;-75
2024/03/11 04:15:21;;;;;;;8.77;5.47;;;7.10;99.90;;;;;;5090836;28;20048;-76
2024/03/11 04:17:53;;;;;;;18.23;5.57;;;7.10;99.90;;;;;;5084729;28;20400;-75
2024/03/11 04:20:29;;;;;;;10.35;5.40;;;7.10;99.90;;;;;;5090928;28;20054;-75
2024/03/11 04:22:55;;;;;;;10.65;6.35;;;7.10;99.90;;;;;;5088726;28;20112;-75
2024/03/11 04:25:23;;;;;;;12.93;5.70;;;7.10;99.90;;;;;;5077009;28;20128;-76
2024/03/11 04:27:52;;;;;;;11.77;4.85;;;7.10;99.90;;;;;;5087568;28;20039;-75
2024/03/11 04:30:19;;;;;;;9.73;4.90;;;7.10;99.90;;;;;;5106524;28;20032;-75
2024/03/11 04:32:51;;;;;;;10.38;5.03;;;7.10;99.90;;;;;;5090466;28;20403;-75
2024/03/11 04:35:34;;;;;;;12.45;5.57;;;7.10;99.90;;;;;;5072351;28;20123;-75
2024/03/11 04:38:03;;;;;;;8.45;4.72;;;7.10;99.90;;;;;;5090329;28;20181;-75
2024/03/11 04:40:33;;;;;;;8.85;4.55;;;7.10;99.90;;;;;;5087906;28;20040;-75
2024/03/11 04:43:00;;;;;;;9.18;4.22;;;7.20;99.90;;;;;;5072810;28;20127;-75
2024/03/11 04:45:26;;;;;;;10.15;5.47;;;7.10;99.90;;;;;;5073258;28;20047;-75
2024/03/11 04:47:59;;;;;;;9.98;5.20;;;7.10;99.90;;;;;;5086681;28;20047;-75
2024/03/11 04:50:26;;;;;;;10.27;6.03;;;7.10;99.90;;;;;;5073251;28;20408;-75
2024/03/11 04:52:57;;;;;;;12.57;6.78;;;7.20;99.90;;;;;;5083226;28;20036;-75
2024/03/11 04:55:23;;;;;;;12.07;6.18;;;7.20;99.90;;;;;;5104734;28;20082;-75
2024/03/11 04:57:49;;;;;;;9.30;5.82;;;7.20;99.90;;;;;;5086180;28;20052;-75
2024/03/11 05:00:16;;;;;;;11.80;5.25;;;7.20;99.90;;;;;;5064289;28;20067;-75
2024/03/11 05:02:41;;;;;;;10.30;4.85;;;7.20;99.90;;;;;;5086330;28;20036;-75
2024/03/11 05:05:09;;;;;;;13.50;6.65;;;7.20;99.90;;;;;;5081094;28;20043;-75
2024/03/11 05:07:35;;;;;;;11.43;5.05;;;7.20;99.90;;;;;;5080288;28;20043;-75
2024/03/11 05:10:02;;;;;;;8.70;4.95;;;7.20;99.90;;;;;;5072871;28;20028;-75
2024/03/11 05:12:28;;;;;;;10.95;5.35;;;7.20;99.90;;;;;;5087005;28;20036;-75
2024/03/11 05:14:54;;;;;;;10.35;4.72;;;7.20;99.90;;;;;;5066978;28;20476;-75
2024/03/11 05:17:20;;;;;;;9.60;4.93;;;7.20;99.90;;;;;;5089959;28;20515;-75
2024/03/11 05:19:49;;;;;;;11.73;5.70;;;7.20;99.90;;;;;;5066936;28;20083;-75
2024/03/11 05:22:15;;;;;;;10.70;5.95;;;7.20;99.90;;;;;;5089493;28;20078;-75
2024/03/11 05:24:41;;;;;;;8.30;4.90;;;7.20;99.90;;;;;;5087148;28;20367;-74
2024/03/11 05:27:06;;;;;;;9.57;5.32;;;7.20;99.90;;;;;;5087221;28;20063;-74
2024/03/11 05:29:32;;;;;;;13.52;6.13;;;7.20;99.90;;;;;;5087447;28;20078;-74
2024/03/11 05:31:59;;;;;;;11.02;5.63;;;7.10;99.90;;;;;;5088335;28;20040;-74
2024/03/11 05:34:25;;;;;;;5.53;3.35;;;7.10;99.90;;;;;;5088399;28;20040;-74
2024/03/11 05:36:51;;;;;;;7.00;4.63;;;7.10;99.90;;;;;;5088166;28;20093;-75
2024/03/11 05:39:17;;;;;;;8.77;5.05;;;7.10;99.90;;;;;;5088731;28;20483;-74
2024/03/11 05:41:43;;;;;;;10.15;5.70;;;7.00;99.90;;;;;;5087194;28;20105;-74
2024/03/11 05:44:12;;;;;;;8.73;5.20;;;7.00;99.90;;;;;;5086163;28;20096;-74
2024/03/11 05:46:38;;;;;;;8.52;4.72;;;7.00;99.90;;;;;;5088881;28;20032;-75
2024/03/11 05:49:12;;;;;;;9.55;4.85;;;6.90;99.90;;;;;;5069980;28;20115;-75
2024/03/11 05:51:39;;;;;;;10.38;5.05;;;6.90;99.90;;;;;;5068942;28;20032;-75
2024/03/11 05:54:05;;;;;;;9.35;5.30;;;6.90;99.90;;;;;;5087823;28;20145;-75
2024/03/11 05:56:31;;;;;;;12.68;4.65;;;6.90;99.90;;;;;;5098888;28;20052;-75
2024/03/11 05:58:57;;;;;;;8.82;5.10;;;6.90;99.90;;;;;;5089604;28;20056;-75
2024/03/11 06:01:24;;;;;;;8.25;3.95;;;6.90;99.90;;;;;;5078881;28;20044;-75
2024/03/11 06:03:50;;;;;;;9.55;5.13;;;6.90;99.90;;;;;;5087915;28;20048;-75
2024/03/11 06:06:20;;;;;;;10.10;5.07;;;6.80;99.90;;;;;;5086714;28;20040;-75
2024/03/11 06:08:46;;;;;;;9.75;5.47;;;6.80;99.90;;;;;;5106314;28;20554;-75
2024/03/11 06:11:12;;;;;;;9.48;5.00;;;6.80;99.90;;;;;;5083747;28;20036;-75
2024/03/11 06:13:37;;;;;;;8.85;4.50;;;6.80;99.90;;;;;;5085055;28;20036;-75
2024/03/11 06:16:07;;;;;;;9.00;4.75;;;6.80;99.90;;;;;;5076428;28;20049;-75
2024/03/11 06:18:38;;;;;;;13.20;5.25;;;6.80;99.90;;;;;;5086918;28;20123;-75
2024/03/11 06:21:05;;;;;;;8.27;4.93;;;6.70;99.90;;;;;;5085127;28;20111;-74
2024/03/11 06:23:32;;;;;;;12.60;6.65;;;6.70;99.90;;;;;;5102151;28;20043;-76
2024/03/11 06:25:58;;;;;;;12.35;6.05;;;6.80;99.90;;;;;;5084484;28;20098;-75
2024/03/11 06:28:26;;;;;;;9.23;5.05;;;6.70;99.90;;;;;;5085973;28;20450;-74
2024/03/11 06:30:53;;;;;;;9.05;5.85;;;6.70;99.90;;;;;;5085699;28;20399;-75
2024/03/11 06:33:21;;;;;;;11.60;6.03;;;6.70;99.90;;;;;;5104615;28;20036;-75
2024/03/11 06:35:47;;;;;;;11.75;5.07;;;6.70;99.90;;;;;;5069110;28;20041;-74
2024/03/11 06:38:16;;;;;;;7.03;4.75;;;6.70;99.90;;;;;;5074688;28;20080;-75
2024/03/11 06:40:43;;;;;;;9.70;5.13;;;6.70;99.90;;;;;;5086801;28;20089;-76
2024/03/11 06:43:09;;;;;;;9.88;4.50;;;6.70;99.90;;;;;;5073103;28;20036;-75
2024/03/11 06:45:34;;;;;;;10.10;5.90;;;6.70;99.90;;;;;;5087834;28;20041;-75
2024/03/11 06:48:00;;;;;;;9.00;5.18;;;6.70;99.90;;;;;;5100287;28;20040;-75
2024/03/11 06:50:26;;;;;;;13.98;5.55;;;6.60;99.90;;;;;;5077105;28;20119;-75
2024/03/11 06:52:52;;;;;;;10.10;5.22;;;6.60;99.90;;;;;;5067963;28;20472;-75
2024/03/11 06:55:18;;;;;;;11.23;5.57;;;6.60;99.90;;;;;;5087656;28;20067;-74
2024/03/11 06:57:44;;;;;;;8.13;4.53;;;6.60;99.90;;;;;;5085830;28;20120;-74
2024/03/11 07:00:19;;;;;;;8.95;4.68;;;6.60;99.90;;;;;;5091425;28;20155;-75
2024/03/11 07:02:46;;;;;;;9.02;5.25;;;6.60;99.90;;;;;;5085837;28;20548;-80
2024/03/11 07:05:13;;;;;;;12.77;5.32;;;6.60;99.90;;;;;;5089075;28;20176;-82
2024/03/11 07:07:42;;;;;;;8.75;4.50;;;6.60;99.90;;;;;;5087586;28;20047;-75
2024/03/11 07:10:10;;;;;;;10.82;4.90;;;6.60;99.90;;;;;;5089116;28;20066;-75
2024/03/11 07:12:37;;;;;;;7.80;4.70;;;6.60;99.90;;;;;;5087257;28;20044;-75
2024/03/11 07:15:03;;;;;;;14.73;6.20;;;6.60;99.90;;;;;;5087047;28;20136;-76
2024/03/11 07:17:29;;;;;;;9.50;4.20;;;6.70;99.90;;;;;;5068523;28;20032;-75
2024/03/11 07:19:56;;;;;;;15.63;4.63;;;6.70;99.90;;;;;;5090317;28;20036;-75
2024/03/11 07:22:23;;;;;;;7.47;4.20;;;6.70;99.90;;;;;;5087216;28;20080;-75
2024/03/11 07:24:50;;;;;;;9.60;3.60;;;6.60;99.90;;;;;;5066928;28;20123;-75
2024/03/11 07:27:16;;;;;;;6.88;4.30;;;6.70;99.90;;;;;;5086246;28;20036;-75
2024/03/11 07:29:45;;;;;;;8.95;4.40;;;6.70;99.90;;;;;;5088083;28;20113;-74
2024/03/11 07:32:11;;;;;;;9.82;5.30;;;6.70;99.90;;;;;;5073309;28;20032;-74
2024/03/11 07:34:42;;;;;;;9.40;4.32;;;6.70;99.90;;;;;;5105966;28;20517;-75
2024/03/11 07:37:09;;;;;;;8.35;4.25;;;6.70;99.90;;;;;;5086115;28;20033;-76
2024/03/11 07:39:36;;;;;;;9.60;3.28;;;6.70;99.90;;;;;;5086063;28;20087;-76
2024/03/11 07:42:02;;;;;;;7.07;3.85;;;6.80;99.90;;;;;;5090216;28;20090;-77
2024/03/11 07:44:28;;;;;;;10.80;4.53;;;6.80;99.90;;;;;;5087152;28;20067;-74
2024/03/11 07:46:54;;;;;;;7.95;4.10;;;6.80;99.90;;;;;;5088321;28;20079;-77
2024/03/11 07:49:20;;;;;;;8.50;3.88;;;6.80;99.90;;;;;;5091123;28;20094;-76
2024/03/11 07:51:47;;;;;;;10.18;5.25;;;6.80;99.90;;;;;;5088873;28;20046;-77
2024/03/11 07:54:12;;;;;;;11.00;6.13;;;6.80;99.90;;;;;;5090975;28;20048;-79
2024/03/11 07:56:39;;;;;;;15.85;5.53;;;6.90;99.90;;;;;;5089227;28;20052;-78
2024/03/11 07:59:05;;;;;;;10.32;4.78;;;6.90;99.90;;;;;;5074794;28;20544;-77
2024/03/11 08:01:31;;;;;;;9.35;4.32;;;7.00;99.90;;;;;;5088593;28;20036;-76
2024/03/11 08:03:58;;;;;;;9.95;4.65;;;7.00;99.90;;;;;;5089419;28;20044;-76
2024/03/11 08:06:24;;;;;;;7.35;4.00;;;7.00;99.90;;;;;;5088557;28;20043;-78
2024/03/11 08:08:53;;;;;;;9.88;5.20;;;7.10;99.90;;;;;;5091241;28;20044;-78
2024/03/11 08:11:21;;;;;;;10.63;4.75;;;7.10;99.90;;;;;;5090058;28;20058;-77
2024/03/11 08:13:47;;;;;;;7.68;4.20;;;7.10;99.90;;;;;;5090876;28;20032;-78
2024/03/11 08:16:13;;;;;;;10.57;5.38;;;7.20;99.90;;;;;;5085905;28;20036;-78
2024/03/11 08:18:40;;;;;;;8.05;4.60;;;7.20;99.90;;;;;;5087975;28;20040;-78
2024/03/11 08:21:10;;;;;;;9.05;4.75;;;7.20;99.90;;;;;;5069557;28;20063;-78
2024/03/11 08:23:38;;;;;;;9.63;4.25;;;7.20;99.90;;;;;;5070658;28;20308;-78
2024/03/11 08:26:07;;;;;;;6.50;3.97;;;7.30;99.90;;;;;;5069027;28;20089;-78
2024/03/11 08:28:33;;;;;;;14.93;4.35;;;7.30;99.90;;;;;;5102926;28;20044;-78
2024/03/11 08:30:59;;;;;;;7.30;3.60;;;7.30;99.90;;;;;;5077828;28;20044;-78
2024/03/11 08:33:25;;;;;;;9.20;4.78;;;7.30;99.90;;;;;;5082655;28;20032;-78
2024/03/11 08:35:53;;;;;;;5.95;3.35;;;7.30;99.90;;;;;;5089525;28;20040;-78
2024/03/11 08:38:20;;;;;;;11.60;5.18;;;7.40;99.90;;;;;;5086834;28;20434;-78
2024/03/11 08:40:46;;;;;;;7.20;4.13;;;7.40;99.90;;;;;;5089252;28;20044;-78
2024/03/11 08:43:12;;;;;;;8.52;4.65;;;7.40;99.90;;;;;;5085922;28;20062;-78
2024/03/11 08:45:41;;;;;;;10.70;4.82;;;7.50;99.90;;;;;;5105348;28;20499;-78
2024/03/11 08:48:07;;;;;;;6.40;4.70;;;7.50;99.90;;;;;;5086435;28;20071;-78
2024/03/11 08:50:33;;;;;;;6.80;4.03;;;7.50;99.90;;;;;;5090540;28;20036;-78
2024/03/11 08:53:00;;;;;;;7.22;4.13;;;7.50;99.90;;;;;;5069228;28;20046;-78
2024/03/11 08:55:26;;;;;;;6.07;3.58;;;7.50;99.90;;;;;;5088964;28;20035;-77
2024/03/11 08:57:58;;;;;;;10.30;4.85;;;7.50;99.90;;;;;;5085358;28;20185;-77
2024/03/11 09:00:28;;;;;;;8.65;4.82;;;7.50;99.90;;;;;;5078065;28;20040;-77
2024/03/11 09:02:54;;;;;;;11.25;4.75;;;7.50;99.90;;;;;;5071350;28;20363;-78
2024/03/11 09:05:22;;;;;;;10.98;5.15;;;7.50;99.90;;;;;;5089922;28;20043;-77
2024/03/11 09:07:51;;;;;;;10.07;4.63;;;7.40;99.90;;;;;;5088042;28;20040;-77
2024/03/11 09:10:18;;;;;;;10.15;4.72;;;7.40;99.90;;;;;;5101370;28;20040;-77
2024/03/11 09:12:44;;;;;;;11.57;5.22;;;7.30;99.90;;;;;;5084996;28;20032;-76
2024/03/11 09:15:17;;;;;;;10.25;5.13;;;7.40;99.90;;;;;;5084602;28;20043;-77
2024/03/11 09:17:45;;;;;;;6.95;4.05;;;7.40;99.90;;;;;;5088642;28;20071;-77
2024/03/11 09:20:15;;;;;;;7.10;4.57;;;7.40;99.90;;;;;;5103918;28;20151;-78
2024/03/11 09:22:46;;;;;;;17.33;5.20;;;7.40;99.90;;;;;;5088256;28;20040;-78
2024/03/11 09:25:17;;;;;;;6.22;4.20;;;7.40;99.90;;;;;;5070659;28;20046;-80
2024/03/11 09:27:51;;;;;;;7.43;3.88;;;7.50;99.90;;;;;;5072418;28;20043;-80
2024/03/11 09:30:20;;;;;;;7.00;3.80;;;7.50;99.90;;;;;;5090878;28;20039;-80
2024/03/11 09:32:50;;;;;;;9.07;4.65;;;7.60;99.90;;;;;;5088188;28;20044;-80
2024/03/11 09:35:17;;;;;;;17.40;4.65;;;7.60;99.90;;;;;;5083203;28;20128;-81
2024/03/11 09:37:46;;;;;;;6.20;3.92;;;7.70;99.90;;;;;;5070778;28;20436;-81
2024/03/11 09:40:16;;;;;;;11.88;4.38;;;7.70;99.90;;;;;;5087056;28;20036;-80
2024/03/11 09:42:47;;;;;;;8.75;4.47;;;7.70;99.90;;;;;;5088936;28;20073;-80
2024/03/11 09:45:17;;;;;;;10.15;5.50;;;7.70;99.90;;;;;;5103182;28;20409;-80
2024/03/11 09:47:57;;;;;;;9.38;4.88;;;7.70;99.90;;;;;;5088225;28;20163;-79
2024/03/11 09:50:30;;;;;;;10.02;4.85;;;7.80;99.90;;;;;;5072687;28;20065;-79
2024/03/11 09:53:07;;;;;;;9.60;3.97;;;7.70;99.90;;;;;;5083491;28;20119;-80
2024/03/11 09:55:36;;;;;;;12.02;4.80;;;7.70;99.90;;;;;;5084474;28;20507;-80
2024/03/11 09:58:10;;;;;;;9.18;5.30;;;7.70;99.90;;;;;;5087290;28;20048;-79
2024/03/11 10:00:48;;;;;;;5.55;3.53;;;7.70;99.90;;;;;;5082782;28;20488;-79
2024/03/11 10:03:21;;;;;;;8.43;4.15;;;7.70;99.90;;;;;;5088906;28;20109;-79
2024/03/11 10:05:54;;;;;;;14.30;5.13;;;7.70;99.90;;;;;;5069089;28;20036;-79
2024/03/11 10:08:25;;;;;;;8.30;5.35;;;7.70;99.90;;;;;;5071645;28;20039;-79
2024/03/11 10:11:11;;;;;;;10.70;5.07;;;7.70;99.90;;;;;;5062102;28;20048;-79
2024/03/11 10:13:37;;;;;;;10.15;4.72;;;7.80;99.90;;;;;;5086463;28;20415;-79
2024/03/11 10:16:14;;;;;;;9.85;5.47;;;7.80;99.90;;;;;;5077853;28;20052;-76
2024/03/11 10:18:48;;;;;;;15.00;4.57;;;7.80;99.90;;;;;;5105154;28;20544;-77
2024/03/11 10:21:19;;;;;;;9.25;4.57;;;7.80;99.90;;;;;;5071071;28;20036;-77
2024/03/11 10:23:48;;;;;;;8.68;4.70;;;7.90;99.90;;;;;;5080579;28;20518;-77
2024/03/11 10:26:18;;;;;;;9.38;4.30;;;7.90;99.90;;;;;;5083931;28;20133;-76
2024/03/11 10:28:49;;;;;;;7.95;4.38;;;7.90;99.90;;;;;;5083023;28;20044;-77
2024/03/11 10:31:31;;;;;;;9.30;4.80;;;7.80;99.90;;;;;;5082858;28;20039;-77
2024/03/11 10:34:20;;;;;;;10.68;4.82;;;7.80;99.90;;;;;;5085849;28;20612;-77
2024/03/11 10:36:46;;;;;;;11.10;4.88;;;7.80;99.90;;;;;;5084715;28;20145;-77
2024/03/11 10:41:50;;;;;;;6.35;3.38;;;7.80;99.90;;;;;;5082194;28;20204;-77
2024/03/11 10:44:23;;;;;;;8.18;4.63;;;7.80;99.90;;;;;;5086388;28;20062;-78
2024/03/11 10:46:53;;;;;;;10.85;4.32;;;7.90;99.90;;;;;;5086195;28;20036;-78
2024/03/11 10:49:21;;;;;;;7.35;4.90;;;7.90;99.90;;;;;;5066641;28;20499;-78
2024/03/11 10:51:47;;;;;;;10.23;5.53;;;7.90;99.90;;;;;;5087588;28;20040;-78
2024/03/11 10:54:28;;;;;;;7.85;4.22;;;7.90;99.90;;;;;;5086976;28;20531;-78
2024/03/11 10:56:55;;;;;;;9.80;5.28;;;7.90;99.90;;;;;;5069646;28;20062;-78
2024/03/11 10:59:34;;;;;;;12.30;5.32;;;8.00;99.90;;;;;;5084753;28;20160;-78
2024/03/11 11:02:04;;;;;;;7.15;4.18;;;8.00;99.90;;;;;;5082815;28;20078;-77
2024/03/11 11:04:33;;;;;;;8.82;4.03;;;8.10;99.90;;;;;;5083837;28;20134;-78
2024/03/11 11:07:02;;;;;;;8.00;4.53;;;8.10;99.90;;;;;;5083719;28;20122;-78
2024/03/11 11:09:29;;;;;;;8.60;4.82;;;8.30;99.90;;;;;;5083642;28;20039;-78
2024/03/11 11:11:56;;;;;;;8.52;4.88;;;8.30;99.90;;;;;;5069087;28;20040;-78
2024/03/11 11:14:27;;;;;;;10.98;4.25;;;8.30;99.90;;;;;;5086777;28;20047;-77
2024/03/11 11:16:55;;;;;;;10.82;4.68;;;8.40;99.90;;;;;;5084948;28;20078;-77
2024/03/11 11:19:35;;;;;;;5.78;3.22;;;8.40;99.90;;;;;;5068066;28;20097;-77
2024/03/11 11:22:02;;;;;;;10.30;4.05;;;8.50;99.90;;;;;;5069470;28;20044;-77
2024/03/11 11:24:39;;;;;;;7.43;4.30;;;8.60;99.90;;;;;;5083568;28;20044;-77
2024/03/11 11:27:06;;;;;;;7.80;3.83;;;8.60;99.90;;;;;;5082086;28;20045;-77
2024/03/11 11:29:33;;;;;;;13.48;4.50;;;8.60;99.90;;;;;;5088755;28;20040;-77
2024/03/11 11:32:00;;;;;;;10.55;4.28;;;8.50;99.90;;;;;;5084451;28;20039;-77
2024/03/11 11:34:44;;;;;;;9.60;4.20;;;8.50;99.90;;;;;;5081876;28;20170;-77
2024/03/11 11:37:19;;;;;;;8.43;4.60;;;8.50;99.90;;;;;;5090020;28;20079;-77
2024/03/11 11:39:46;;;;;;;8.52;4.53;;;8.60;99.90;;;;;;5091231;28;20071;-80
2024/03/11 11:42:34;;;;;;;7.93;4.60;;;8.60;99.90;;;;;;5090568;28;20046;-80
2024/03/11 11:45:01;;;;;;;9.15;4.90;;;8.70;99.90;;;;;;5106968;28;20047;-82
2024/03/11 11:47:27;;;;;;;11.50;4.50;;;8.60;99.90;;;;;;5077189;28;20039;-84
2024/03/11 11:49:56;;;;;;;11.07;4.68;;;8.70;99.90;;;;;;5093152;28;20047;-83
2024/03/11 11:52:23;;;;;;;6.53;4.00;;;8.70;99.90;;;;;;5098963;28;20115;-83
2024/03/11 11:54:52;;;;;;;10.02;5.28;;;8.80;99.90;;;;;;5083458;28;20042;-82
2024/03/11 11:57:21;;;;;;;10.70;4.50;;;8.90;99.90;;;;;;5099117;28;20051;-85
2024/03/11 11:59:56;;;;;;;9.55;4.78;;;9.00;99.90;;;;;;5097265;28;20040;-83
2024/03/11 12:02:25;;;;;;;10.07;4.70;;;9.10;99.90;;;;;;5101759;28;20472;-83
2024/03/11 12:04:54;;;;;;;6.97;4.05;;;9.10;99.90;;;;;;5101311;28;20082;-80
2024/03/11 12:07:24;;;;;;;12.90;5.50;;;9.10;99.90;;;;;;5084512;28;20073;-80
2024/03/11 12:09:55;;;;;;;5.80;3.28;;;9.10;99.90;;;;;;5105776;28;20041;-81
2024/03/11 12:12:30;;;;;;;7.80;4.28;;;9.10;99.90;;;;;;5069837;28;20044;-81
2024/03/11 12:14:56;;;;;;;7.88;3.70;;;9.10;99.90;;;;;;5086214;28;20051;-80
2024/03/11 12:17:29;;;;;;;6.65;4.00;;;9.10;99.90;;;;;;5091193;28;20554;-80
2024/03/11 12:22:57;;;;;;;9.30;5.47;;;9.10;99.90;;;;;;5088140;28;20438;-81
2024/03/11 12:25:24;;;;;;;11.48;4.32;;;9.00;99.90;;;;;;5093315;28;20036;-83
2024/03/11 12:27:56;;;;;;;10.82;4.65;;;9.00;99.90;;;;;;5092628;28;20047;-82
2024/03/11 12:30:27;;;;;;;10.30;4.97;;;8.90;99.90;;;;;;5076103;28;20043;-84
2024/03/11 12:33:08;;;;;;;8.27;4.35;;;8.90;99.90;;;;;;5094342;28;20036;-82
2024/03/11 12:35:37;;;;;;;10.27;5.13;;;8.90;99.90;;;;;;5094270;28;20305;-83
2024/03/11 12:38:07;;;;;;;10.68;4.53;;;8.90;99.90;;;;;;5084621;28;20031;-80
2024/03/11 12:40:42;;;;;;;10.70;4.82;;;8.90;99.90;;;;;;5105725;28;20096;-82
2024/03/11 12:43:27;;;;;;;9.68;4.78;;;8.80;99.90;;;;;;5090708;28;20395;-82
2024/03/11 12:46:00;;;;;;;9.73;4.95;;;8.70;99.90;;;;;;5080174;28;20109;-83
2024/03/11 12:48:28;;;;;;;6.55;3.63;;;8.70;99.90;;;;;;5077335;28;20564;-83
2024/03/11 12:51:02;;;;;;;7.32;4.40;;;8.70;99.90;;;;;;5072027;28;20139;-81
2024/03/11 12:53:29;;;;;;;10.63;4.60;;;8.70;99.90;;;;;;5072461;28;20085;-82
2024/03/11 12:56:12;;;;;;;7.57;4.88;;;8.70;99.90;;;;;;5086418;28;20396;-80
2024/03/11 12:58:42;;;;;;;6.63;4.57;;;8.70;99.90;;;;;;5070992;28;20052;-80
2024/03/11 13:01:12;;;;;;;8.18;5.45;;;8.70;99.90;;;;;;5087606;28;20032;-80
2024/03/11 13:03:40;;;;;;;7.18;3.67;;;8.70;99.90;;;;;;5073613;28;20484;-81